createdAt,value
2022-12-08T00:01:34.018Z,-1.52
2022-12-08T00:04:05.710Z,-1.64
2022-12-08T00:06:52.895Z,-1.75
2022-12-08T00:09:23.379Z,-1.90
2022-12-08T00:11:57.262Z,-1.98
2022-12-08T00:14:27.781Z,-1.99
2022-12-08T00:16:56.599Z,-2.06
2022-12-08T00:19:27.164Z,-2.13
2022-12-08T00:21:56.001Z,-2.17
2022-12-08T00:24:25.846Z,-2.25
2022-12-08T00:26:53.940Z,-2.35
2022-12-08T00:29:22.129Z,-2.40
2022-12-08T00:31:50.298Z,-2.42
2022-12-08T00:34:18.531Z,-2.46
2022-12-08T00:36:48.264Z,-2.46
2022-12-08T00:39:18.515Z,-2.39
2022-12-08T00:42:04.073Z,-2.30
2022-12-08T00:44:32.167Z,-2.20
2022-12-08T00:47:00.357Z,-2.16
2022-12-08T00:49:28.450Z,-2.08
2022-12-08T00:51:58.012Z,-2.01
2022-12-08T00:54:26.451Z,-1.98
2022-12-08T00:56:54.643Z,-1.96
2022-12-08T00:59:22.885Z,-1.94
2022-12-08T01:01:50.962Z,-2.02
2022-12-08T01:04:20.767Z,-2.05
2022-12-08T01:06:49.754Z,-2.06
2022-12-08T01:09:20.137Z,-2.02
2022-12-08T01:11:49.386Z,-1.99
2022-12-08T01:14:17.591Z,-1.98
2022-12-08T01:16:45.809Z,-2.02
2022-12-08T01:19:15.297Z,-1.98
2022-12-08T01:21:44.322Z,-2.05
2022-12-08T01:24:13.770Z,-2.21
2022-12-08T01:26:43.599Z,-2.29
2022-12-08T01:29:12.263Z,-2.34
2022-12-08T01:31:41.112Z,-2.38
2022-12-08T01:34:09.867Z,-2.48
2022-12-08T01:36:38.591Z,-2.59
2022-12-08T01:39:09.138Z,-2.69
2022-12-08T01:41:39.224Z,-2.87
2022-12-08T01:44:40.674Z,-2.90
2022-12-08T01:47:10.912Z,-2.93
2022-12-08T01:49:39.160Z,-2.96
2022-12-08T01:52:12.319Z,-3.02
2022-12-08T01:54:44.517Z,-3.15
2022-12-08T01:57:16.920Z,-3.11
2022-12-08T01:59:51.255Z,-3.03
2022-12-08T02:02:20.878Z,-3.00
2022-12-08T02:04:49.060Z,-3.05
2022-12-08T02:07:19.090Z,-3.14
2022-12-08T02:09:47.816Z,-3.14
2022-12-08T02:12:16.494Z,-3.15
2022-12-08T02:14:44.798Z,-3.13
2022-12-08T02:17:28.634Z,-3.16
2022-12-08T02:20:38.728Z,-3.15
2022-12-08T02:23:14.611Z,-3.15
2022-12-08T02:26:03.191Z,-3.15
2022-12-08T02:28:48.048Z,-3.18
2022-12-08T02:31:32.352Z,-3.07
2022-12-08T02:34:14.253Z,-3.05
2022-12-08T02:36:51.238Z,-3.00
2022-12-08T02:39:29.794Z,-2.91
2022-12-08T02:42:08.278Z,-2.81
2022-12-08T02:44:40.861Z,-2.75
2022-12-08T02:47:13.845Z,-2.74
2022-12-08T02:49:43.450Z,-2.60
2022-12-08T02:52:45.092Z,-2.50
2022-12-08T02:55:24.197Z,-2.35
2022-12-08T02:58:27.528Z,-2.34
2022-12-08T03:01:10.486Z,-2.31
2022-12-08T03:03:44.056Z,-2.39
2022-12-08T03:06:23.451Z,-2.36
2022-12-08T03:08:56.829Z,-2.45
2022-12-08T03:11:30.478Z,-2.49
2022-12-08T03:14:02.452Z,-2.41
2022-12-08T03:16:34.020Z,-2.34
2022-12-08T03:19:08.243Z,-2.29
2022-12-08T03:21:40.398Z,-2.17
2022-12-08T03:24:11.294Z,-2.05
2022-12-08T03:26:47.046Z,-1.99
2022-12-08T03:29:15.625Z,-2.04
2022-12-08T03:31:50.641Z,-1.99
2022-12-08T03:34:20.040Z,-1.94
2022-12-08T03:36:49.548Z,-2.00
2022-12-08T03:39:17.663Z,-2.12
2022-12-08T03:41:46.861Z,-2.19
2022-12-08T03:44:15.064Z,-2.12
2022-12-08T03:46:43.147Z,-2.04
2022-12-08T03:49:11.562Z,-1.96
2022-12-08T03:51:39.692Z,-1.88
2022-12-08T03:54:09.231Z,-1.85
2022-12-08T03:56:39.500Z,-1.81
2022-12-08T03:59:08.799Z,-1.72
2022-12-08T04:01:36.947Z,-1.67
2022-12-08T04:04:05.468Z,-1.64
2022-12-08T04:06:33.622Z,-1.61
2022-12-08T04:09:01.695Z,-1.48
2022-12-08T04:11:31.217Z,-1.37
2022-12-08T04:13:59.330Z,-1.34
2022-12-08T04:16:28.669Z,-1.26
2022-12-08T04:18:56.831Z,-1.24
2022-12-08T04:21:25.016Z,-1.21
2022-12-08T04:23:57.661Z,-1.17
2022-12-08T04:26:30.707Z,-1.13
2022-12-08T04:28:58.803Z,-1.07
2022-12-08T04:31:26.965Z,-1.01
2022-12-08T04:33:55.105Z,-0.96
2022-12-08T04:36:23.204Z,-0.94
2022-12-08T04:38:51.599Z,-0.91
2022-12-08T04:41:19.683Z,-1.01
2022-12-08T04:43:49.170Z,-1.03
2022-12-08T04:46:17.308Z,-1.04
2022-12-08T04:48:45.526Z,-1.10
2022-12-08T04:51:16.533Z,-1.05
2022-12-08T04:53:46.746Z,-1.03
2022-12-08T04:56:15.985Z,-1.04
2022-12-08T04:58:44.133Z,-1.02
2022-12-08T05:01:14.073Z,-0.99
2022-12-08T05:03:42.492Z,-0.97
2022-12-08T05:06:12.245Z,-0.98
2022-12-08T05:08:40.379Z,-0.93
2022-12-08T05:11:10.927Z,-0.91
2022-12-08T05:13:39.336Z,-0.87
2022-12-08T05:16:10.007Z,-0.85
2022-12-08T05:18:40.741Z,-0.84
2022-12-08T05:21:09.800Z,-0.84
2022-12-08T05:23:37.947Z,-0.82
2022-12-08T05:26:06.247Z,-0.81
2022-12-08T05:28:42.931Z,-0.79
2022-12-08T05:31:11.924Z,-0.80
2022-12-08T05:33:42.242Z,-0.77
2022-12-08T05:36:13.076Z,-0.74
2022-12-08T05:38:41.611Z,-0.69
2022-12-08T05:41:10.461Z,-0.67
2022-12-08T05:43:38.591Z,-0.58
2022-12-08T05:46:07.223Z,-0.53
2022-12-08T05:48:35.422Z,-0.51
2022-12-08T05:51:05.081Z,-0.47
2022-12-08T05:53:33.170Z,-0.43
2022-12-08T05:56:01.303Z,-0.51
2022-12-08T05:58:29.376Z,-0.47
2022-12-08T06:00:57.492Z,-0.45
2022-12-08T06:03:25.711Z,-0.51
2022-12-08T06:05:53.894Z,-0.57
2022-12-08T06:08:23.502Z,-0.48
2022-12-08T06:10:51.908Z,-0.50
2022-12-08T06:13:20.110Z,-0.48
2022-12-08T06:15:48.470Z,-0.48
2022-12-08T06:18:16.542Z,-0.48
2022-12-08T06:20:44.615Z,-0.51
2022-12-08T06:23:13.121Z,-0.44
2022-12-08T06:25:42.714Z,-0.44
2022-12-08T06:28:10.810Z,-0.43
2022-12-08T06:30:39.328Z,-0.38
2022-12-08T06:33:07.428Z,-0.35
2022-12-08T06:35:35.514Z,-0.29
2022-12-08T06:38:03.654Z,-0.27
2022-12-08T06:40:31.726Z,-0.27
2022-12-08T06:43:01.218Z,-0.23
2022-12-08T06:45:29.416Z,-0.12
2022-12-08T06:47:57.535Z,-0.09
2022-12-08T06:50:25.703Z,-0.05
2022-12-08T06:53:03.040Z,-0.01
2022-12-08T06:55:57.748Z,0.05
2022-12-08T06:58:22.495Z,0.13
2022-12-08T07:00:50.640Z,0.18
2022-12-08T07:03:18.782Z,0.28
2022-12-08T07:05:46.878Z,0.33
2022-12-08T07:08:15.091Z,0.34
2022-12-08T07:10:43.309Z,0.38
2022-12-08T07:13:11.396Z,0.42
2022-12-08T07:15:40.914Z,0.47
2022-12-08T07:18:09.031Z,0.45
2022-12-08T07:20:37.131Z,0.49
2022-12-08T07:23:05.262Z,0.56
2022-12-08T07:25:33.409Z,0.61
2022-12-08T07:28:01.515Z,0.65
2022-12-08T07:30:29.742Z,0.73
2022-12-08T07:32:59.399Z,0.76
2022-12-08T07:35:27.500Z,0.88
2022-12-08T07:37:55.630Z,0.88
2022-12-08T07:40:23.729Z,0.94
2022-12-08T07:42:51.820Z,0.95
2022-12-08T07:45:19.998Z,0.95
2022-12-08T07:47:48.101Z,1.02
2022-12-08T07:50:17.842Z,1.12
2022-12-08T07:52:45.914Z,1.23
2022-12-08T07:55:14.025Z,1.30
2022-12-08T07:57:42.141Z,1.35
2022-12-08T08:00:12.461Z,1.39
2022-12-08T08:02:41.091Z,1.44
2022-12-08T08:05:10.636Z,1.55
2022-12-08T08:07:42.183Z,1.69
2022-12-08T08:10:13.741Z,1.78
2022-12-08T08:12:41.938Z,1.77
2022-12-08T08:15:11.338Z,1.85
2022-12-08T08:17:39.675Z,1.95
2022-12-08T08:20:09.939Z,2.05
2022-12-08T08:22:39.412Z,2.13
2022-12-08T08:25:08.118Z,2.20
2022-12-08T08:27:36.184Z,2.22
2022-12-08T08:30:04.960Z,2.31
2022-12-08T08:32:34.594Z,2.35
2022-12-08T08:35:02.733Z,2.44
2022-12-08T08:37:30.967Z,2.47
2022-12-08T08:40:00.435Z,2.57
2022-12-08T08:42:29.091Z,2.66
2022-12-08T08:44:57.256Z,2.66
2022-12-08T08:47:25.382Z,2.75
2022-12-08T08:49:53.507Z,2.78
2022-12-08T08:52:21.634Z,2.91
2022-12-08T08:54:49.910Z,2.99
2022-12-08T08:57:25.097Z,3.08
2022-12-08T08:59:53.872Z,3.14
2022-12-08T09:02:22.546Z,3.18
2022-12-08T09:04:50.855Z,3.19
2022-12-08T09:07:19.075Z,3.18
2022-12-08T09:09:47.162Z,3.23
2022-12-08T09:12:15.242Z,3.19
2022-12-08T09:14:44.754Z,3.30
2022-12-08T09:17:12.898Z,3.27
2022-12-08T09:19:41.003Z,3.29
2022-12-08T09:22:09.122Z,3.31
2022-12-08T09:24:37.177Z,3.28
2022-12-08T09:27:05.416Z,3.31
2022-12-08T09:29:36.235Z,3.38
2022-12-08T09:32:06.470Z,3.40
2022-12-08T09:34:34.571Z,3.41
2022-12-08T09:37:02.669Z,3.42
2022-12-08T09:39:30.765Z,3.42
2022-12-08T09:42:01.416Z,3.38
2022-12-08T09:44:55.462Z,3.44
2022-12-08T09:47:35.279Z,3.48
2022-12-08T09:50:08.606Z,3.45
2022-12-08T09:52:42.367Z,3.53
2022-12-08T09:55:18.524Z,3.64
2022-12-08T09:57:51.632Z,3.77
2022-12-08T10:00:23.454Z,3.77
2022-12-08T10:02:53.166Z,3.85
2022-12-08T10:05:21.982Z,3.88
2022-12-08T10:07:56.585Z,3.93
2022-12-08T10:10:37.229Z,3.96
2022-12-08T10:13:17.981Z,3.96
2022-12-08T10:15:52.240Z,3.93
2022-12-08T10:18:27.751Z,3.99
2022-12-08T10:21:00.546Z,4.07
2022-12-08T10:23:32.815Z,4.08
2022-12-08T10:26:03.760Z,3.93
2022-12-08T10:28:32.966Z,3.97
2022-12-08T10:31:01.358Z,4.11
2022-12-08T10:33:34.009Z,4.10
2022-12-08T10:36:05.012Z,4.10
2022-12-08T10:38:34.896Z,4.06
2022-12-08T10:41:13.585Z,4.16
2022-12-08T10:43:46.368Z,4.03
2022-12-08T10:46:15.907Z,3.98
2022-12-08T10:48:56.488Z,3.94
2022-12-08T10:51:29.104Z,3.97
2022-12-08T10:53:57.533Z,3.95
2022-12-08T10:56:30.265Z,3.84
2022-12-08T10:59:13.073Z,3.89
2022-12-08T11:01:42.926Z,3.97
2022-12-08T11:04:18.534Z,3.85
2022-12-08T11:06:48.021Z,3.93
2022-12-08T11:09:35.384Z,3.91
2022-12-08T11:12:09.282Z,3.94
2022-12-08T11:14:49.146Z,3.74
2022-12-08T11:17:19.203Z,3.61
2022-12-08T11:20:02.670Z,3.44
2022-12-08T11:22:33.478Z,3.49
2022-12-08T11:25:04.146Z,3.49
2022-12-08T11:27:34.861Z,3.37
2022-12-08T11:30:04.189Z,3.33
2022-12-08T11:32:34.834Z,3.37
2022-12-08T11:35:07.747Z,3.38
2022-12-08T11:37:40.325Z,3.40
2022-12-08T11:40:19.407Z,3.48
2022-12-08T11:42:57.552Z,3.47
2022-12-08T11:45:29.765Z,3.39
2022-12-08T11:48:06.782Z,3.36
2022-12-08T11:50:44.593Z,3.35
2022-12-08T11:53:19.549Z,3.43
2022-12-08T11:55:53.519Z,3.44
2022-12-08T11:58:27.937Z,3.58
2022-12-08T12:00:56.092Z,3.61
2022-12-08T12:03:32.461Z,3.57
2022-12-08T12:09:12.537Z,3.58
2022-12-08T12:12:06.892Z,3.55
2022-12-08T12:14:58.754Z,3.48
2022-12-08T12:17:39.326Z,3.46
2022-12-08T12:20:17.594Z,3.38
2022-12-08T12:22:50.732Z,3.42
2022-12-08T12:25:23.757Z,3.37
2022-12-08T12:27:57.164Z,3.38
2022-12-08T12:30:27.921Z,3.43
2022-12-08T12:32:58.352Z,3.41
2022-12-08T12:35:34.941Z,3.42
2022-12-08T12:38:28.712Z,3.43
2022-12-08T12:41:02.522Z,3.46
2022-12-08T12:43:33.644Z,3.38
2022-12-08T12:46:50.142Z,3.24
2022-12-08T12:49:55.246Z,3.27
2022-12-08T12:52:46.123Z,3.14
2022-12-08T12:55:52.906Z,3.08
2022-12-08T12:58:40.900Z,3.08
2022-12-08T13:01:46.458Z,3.07
2022-12-08T13:04:16.372Z,3.11
2022-12-08T13:06:47.149Z,3.08
2022-12-08T13:09:30.408Z,3.07
2022-12-08T13:12:02.578Z,3.03
2022-12-08T13:14:33.874Z,3.01
2022-12-08T13:17:05.658Z,3.00
2022-12-08T13:19:34.944Z,3.01
2022-12-08T13:22:03.084Z,2.98
2022-12-08T13:24:36.610Z,3.00
2022-12-08T13:27:33.974Z,2.98
2022-12-08T13:30:42.770Z,2.95
2022-12-08T13:33:19.560Z,2.99
2022-12-08T13:36:02.143Z,3.01
2022-12-08T13:38:34.054Z,3.04
2022-12-08T13:41:04.842Z,3.09
2022-12-08T13:43:52.464Z,3.04
2022-12-08T13:56:37.422Z,2.95
2022-12-08T13:58:18.359Z,2.88
2022-12-08T14:00:58.854Z,2.82
2022-12-08T14:03:27.226Z,2.82
2022-12-08T14:06:12.230Z,2.70
2022-12-08T14:09:05.063Z,2.71
2022-12-08T14:11:36.460Z,2.71
2022-12-08T14:14:07.926Z,2.66
2022-12-08T14:16:41.178Z,2.71
2022-12-08T14:19:19.204Z,2.67
2022-12-08T14:21:58.471Z,2.67
2022-12-08T14:24:27.811Z,2.60
2022-12-08T14:26:59.185Z,2.60
2022-12-08T14:29:40.703Z,2.57
2022-12-08T14:32:22.572Z,2.56
2022-12-08T14:35:00.553Z,2.53
2022-12-08T14:37:31.270Z,2.57
2022-12-08T14:40:02.671Z,2.54
2022-12-08T14:42:31.489Z,2.47
2022-12-08T14:45:02.882Z,2.47
2022-12-08T14:47:34.723Z,2.42
2022-12-08T14:50:05.619Z,2.37
2022-12-08T14:52:34.052Z,2.35
2022-12-08T14:55:02.170Z,2.33
2022-12-08T14:57:36.483Z,2.27
2022-12-08T15:00:12.451Z,2.29
2022-12-08T15:02:47.880Z,2.23
2022-12-08T15:05:19.203Z,2.24
2022-12-08T15:07:50.559Z,2.20
2022-12-08T15:10:27.751Z,2.19
2022-12-08T15:13:05.988Z,2.19
2022-12-08T15:15:47.977Z,2.23
2022-12-08T15:18:19.960Z,2.21
2022-12-08T15:20:51.666Z,2.22
2022-12-08T15:23:26.855Z,2.17
2022-12-08T15:25:58.425Z,2.20
2022-12-08T15:28:30.450Z,2.18
2022-12-08T15:30:59.537Z,2.19
2022-12-08T15:33:29.251Z,2.19
2022-12-08T15:35:57.377Z,2.17
2022-12-08T15:38:27.721Z,2.13
2022-12-08T15:40:57.645Z,2.17
2022-12-08T15:43:26.029Z,2.21
2022-12-08T15:45:59.500Z,2.25
2022-12-08T15:48:31.332Z,2.20
2022-12-08T15:50:59.599Z,2.22
2022-12-08T15:53:27.996Z,2.21
2022-12-08T15:58:54.011Z,2.19
2022-12-08T16:01:23.346Z,2.33
2022-12-08T16:07:20.177Z,2.32
2022-12-08T16:09:33.862Z,2.33
2022-12-08T16:12:20.200Z,2.35
2022-12-08T16:17:37.197Z,2.32
2022-12-08T16:20:12.475Z,2.36
2022-12-08T16:25:46.250Z,2.31
2022-12-08T16:28:52.305Z,2.27
2022-12-08T16:31:13.015Z,2.29
2022-12-08T16:33:42.270Z,2.27
2022-12-08T16:36:12.439Z,2.22
2022-12-08T16:38:40.722Z,2.24
2022-12-08T16:41:32.476Z,2.24
2022-12-08T16:44:03.377Z,2.18
2022-12-08T16:46:32.551Z,2.18
2022-12-08T16:49:00.750Z,2.18
2022-12-08T16:51:30.502Z,2.13
2022-12-08T16:53:59.179Z,2.12
2022-12-08T16:56:32.764Z,2.09
2022-12-08T16:59:02.161Z,2.10
2022-12-08T17:01:30.610Z,2.07
2022-12-08T17:04:29.773Z,2.08
2022-12-08T17:06:50.671Z,2.06
